Time;durP1;ratioP1;P1;durP2;ratioP2;P2;SDS_P1;SDS_P2;PMS_P1;PMS_P2;Temp;Humidity;BMP_temperature;BMP_pressure;BME280_temperature;BME280_humidity;BME280_pressure;Samples;Min_cycle;Max_cycle;Signal;HPM_P1;HPM_P2
2024/04/15 00:01:10;;;;;;;;;;;;;;;16.05;55.29;100932.06;107548;1254;107967;-64
2024/04/15 00:03:52;;;;;;;;;;;;;;;15.98;55.58;100934.50;107564;1255;108480;-64
2024/04/15 00:06:20;;;;;;;;;;;;;;;15.95;55.48;100945.25;107579;1255;99170;-64
2024/04/15 00:08:48;;;;;;;;;;;;;;;15.93;55.54;100947.83;107607;1254;99227;-63
2024/04/15 00:11:17;;;;;;;;;;;;;;;15.92;55.45;100948.28;107591;1256;113110;-62
2024/04/15 00:13:45;;;;;;;;;;;;;;;15.92;55.92;100951.05;107685;1255;107862;-64
2024/04/15 00:16:13;;;;;;;;;;;;;;;15.91;55.40;100950.36;107596;1254;107637;-65
2024/04/15 00:18:41;;;;;;;;;;;;;;;15.93;54.96;100952.53;107622;1253;99243;-63
2024/04/15 00:21:10;;;;;;;;;;;;;;;15.97;54.80;100956.89;107601;1255;99265;-65
2024/04/15 00:23:39;;;;;;;;;;;;;;;15.99;54.81;100953.39;107586;1254;112688;-64
2024/04/15 00:26:07;;;;;;;;;;;;;;;16.00;55.12;100959.59;107603;1254;106790;-64
2024/04/15 00:28:35;;;;;;;;;;;;;;;16.00;54.82;100961.95;107600;1254;108321;-64
2024/04/15 00:31:03;;;;;;;;;;;;;;;16.00;54.63;100956.00;107593;1254;99257;-64
2024/04/15 00:33:31;;;;;;;;;;;;;;;15.99;54.60;100958.41;107678;1254;99233;-64
2024/04/15 00:36:00;;;;;;;;;;;;;;;15.97;54.53;100959.33;107603;1254;111662;-64
2024/04/15 00:38:28;;;;;;;;;;;;;;;15.97;54.40;100960.28;107622;1254;108502;-64
2024/04/15 00:40:56;;;;;;;;;;;;;;;15.96;54.36;100956.56;107625;1257;107954;-64
2024/04/15 00:43:24;;;;;;;;;;;;;;;15.94;54.25;100956.00;107569;1257;99182;-64
2024/04/15 00:45:53;;;;;;;;;;;;;;;15.94;54.89;100956.75;107624;1251;99076;-64
2024/04/15 00:48:21;;;;;;;;;;;;;;;15.91;54.92;100961.38;107606;1256;112722;-63
2024/04/15 00:50:50;;;;;;;;;;;;;;;15.90;55.61;100968.23;107540;1256;108011;-63
2024/04/15 00:53:21;;;;;;;;;;;;;;;15.85;56.38;100978.56;107571;1254;107536;-63
2024/04/15 00:55:51;;;;;;;;;;;;;;;15.80;55.85;100981.42;107596;1254;100317;-64
2024/04/15 00:58:19;;;;;;;;;;;;;;;15.78;56.19;100980.71;107625;1255;99833;-63
2024/04/15 01:00:47;;;;;;;;;;;;;;;15.76;55.74;100975.67;107605;1254;112696;-63
2024/04/15 01:03:16;;;;;;;;;;;;;;;15.76;55.97;100974.42;107555;1254;107738;-64
2024/04/15 01:05:44;;;;;;;;;;;;;;;15.78;55.70;100974.34;107580;1255;107914;-63
2024/04/15 01:08:12;;;;;;;;;;;;;;;15.78;55.81;100980.74;107585;1254;99067;-64
2024/04/15 01:10:40;;;;;;;;;;;;;;;15.76;55.50;100981.49;107641;1254;99084;-63
2024/04/15 01:13:25;;;;;;;;;;;;;;;15.74;55.86;100989.08;107642;1254;113212;-65
2024/04/15 01:15:57;;;;;;;;;;;;;;;15.69;56.27;100983.67;107611;1254;107419;-63
2024/04/15 01:18:26;;;;;;;;;;;;;;;15.63;56.07;100980.54;107676;1254;107190;-64
2024/04/15 01:20:58;;;;;;;;;;;;;;;15.61;56.00;100979.64;107643;1256;99282;-63
2024/04/15 01:23:31;;;;;;;;;;;;;;;15.60;55.98;100974.09;107568;1256;99179;-64
2024/04/15 01:25:59;;;;;;;;;;;;;;;15.59;56.46;100969.74;107603;1256;114581;-63
2024/04/15 01:28:27;;;;;;;;;;;;;;;15.56;56.42;100964.42;107601;1254;108231;-64
2024/04/15 01:30:55;;;;;;;;;;;;;;;15.54;56.05;100966.67;107594;1254;108197;-65
2024/04/15 01:33:24;;;;;;;;;;;;;;;15.51;56.50;100967.34;107565;1254;99165;-64
2024/04/15 01:35:51;;;;;;;;;;;;;;;15.46;56.63;100972.34;107576;1251;99175;-63
2024/04/15 01:38:19;;;;;;;;;;;;;;;15.44;56.56;100968.81;107486;1251;114077;-63
2024/04/15 01:40:47;;;;;;;;;;;;;;;15.42;56.52;100968.98;107494;1251;107376;-63
2024/04/15 01:43:15;;;;;;;;;;;;;;;15.41;56.76;100969.24;107449;1251;107635;-64
2024/04/15 01:45:43;;;;;;;;;;;;;;;15.41;56.70;100964.23;107468;1251;99067;-63
2024/04/15 01:48:11;;;;;;;;;;;;;;;15.40;56.93;100960.15;107549;1254;99243;-64
2024/04/15 01:50:39;;;;;;;;;;;;;;;15.38;57.27;100956.00;107640;1254;113156;-63
2024/04/15 01:53:11;;;;;;;;;;;;;;;15.34;57.65;100960.74;107606;1254;107996;-65
2024/04/15 01:55:39;;;;;;;;;;;;;;;15.29;58.28;100964.42;107594;1251;108581;-64
2024/04/15 01:58:07;;;;;;;;;;;;;;;15.25;58.04;100966.48;107640;1254;99240;-65
2024/04/15 02:00:35;;;;;;;;;;;;;;;15.25;58.08;100970.58;107684;1252;99064;-64
2024/04/15 02:03:03;;;;;;;;;;;;;;;15.26;57.80;100968.30;107404;1254;113861;-64
2024/04/15 02:05:31;;;;;;;;;;;;;;;15.29;57.46;100970.34;107633;1254;107345;-64
2024/04/15 02:07:59;;;;;;;;;;;;;;;15.32;57.65;100975.84;107626;1254;108137;-64
2024/04/15 02:10:27;;;;;;;;;;;;;;;15.34;57.53;100969.30;107551;1254;99071;-65
2024/04/15 02:12:55;;;;;;;;;;;;;;;15.35;57.51;100965.41;107619;1252;99232;-65
2024/04/15 02:15:23;;;;;;;;;;;;;;;15.34;57.42;100963.11;107621;1253;113097;-63
2024/04/15 02:17:51;;;;;;;;;;;;;;;15.31;57.51;100963.20;107462;1254;107951;-63
2024/04/15 02:20:19;;;;;;;;;;;;;;;15.26;57.44;100962.70;107632;1254;108142;-65
2024/04/15 02:22:47;;;;;;;;;;;;;;;15.22;57.33;100965.13;107670;1251;99186;-64
2024/04/15 02:25:16;;;;;;;;;;;;;;;15.17;57.50;100960.02;107596;1252;99292;-64
2024/04/15 02:27:44;;;;;;;;;;;;;;;15.12;57.53;100958.34;107602;1253;112701;-64
2024/04/15 02:30:12;;;;;;;;;;;;;;;15.08;57.75;100956.11;107618;1253;108361;-64
2024/04/15 02:32:42;;;;;;;;;;;;;;;15.04;57.93;100957.08;107530;1255;107839;-63
2024/04/15 02:35:10;;;;;;;;;;;;;;;15.01;58.17;100953.01;107643;1251;99227;-64
2024/04/15 02:37:38;;;;;;;;;;;;;;;15.00;58.41;100948.08;107476;1251;99076;-64
2024/04/15 02:40:07;;;;;;;;;;;;;;;14.99;58.80;100941.30;107500;1251;112453;-64
2024/04/15 02:42:35;;;;;;;;;;;;;;;14.98;59.09;100938.55;107538;1254;108666;-63
2024/04/15 02:45:03;;;;;;;;;;;;;;;14.96;59.13;100934.59;107454;1254;107563;-64
2024/04/15 02:47:31;;;;;;;;;;;;;;;14.95;59.01;100935.05;107607;1251;99058;-64
2024/04/15 02:49:59;;;;;;;;;;;;;;;14.94;58.66;100932.45;107649;1251;99273;-65
2024/04/15 02:52:27;;;;;;;;;;;;;;;14.92;59.00;100935.77;107566;1251;113336;-63
2024/04/15 02:54:55;;;;;;;;;;;;;;;14.85;59.19;100940.04;107623;1256;107974;-63
2024/04/15 02:57:23;;;;;;;;;;;;;;;14.78;59.82;100936.82;107641;1251;107647;-63
2024/04/15 02:59:51;;;;;;;;;;;;;;;14.71;59.68;100948.55;107601;1251;99859;-64
2024/04/15 03:02:19;;;;;;;;;;;;;;;14.67;60.53;100947.67;107568;1254;99182;-64
2024/04/15 03:04:47;;;;;;;;;;;;;;;14.64;60.54;100949.08;107653;1256;113272;-64
2024/04/15 03:07:15;;;;;;;;;;;;;;;14.61;60.45;100949.05;107600;1254;107324;-63
2024/04/15 03:09:44;;;;;;;;;;;;;;;14.60;60.40;100949.09;107636;1256;108275;-63
2024/04/15 03:12:13;;;;;;;;;;;;;;;14.61;60.14;100947.95;107597;1256;99333;-64
2024/04/15 03:14:42;;;;;;;;;;;;;;;14.61;60.11;100947.23;107651;1251;99066;-64
2024/04/15 03:17:10;;;;;;;;;;;;;;;14.62;60.27;100954.63;107689;1254;113260;-63
2024/04/15 03:19:38;;;;;;;;;;;;;;;14.62;60.54;100952.86;107636;1251;106671;-63
2024/04/15 03:22:07;;;;;;;;;;;;;;;14.62;60.34;100959.75;107582;1257;108004;-63
2024/04/15 03:24:38;;;;;;;;;;;;;;;14.61;60.65;100961.33;107601;1254;99185;-63
2024/04/15 03:27:06;;;;;;;;;;;;;;;14.60;60.50;100960.63;107592;1254;99163;-63
2024/04/15 03:29:34;;;;;;;;;;;;;;;14.61;60.57;100965.30;107625;1251;112728;-63
2024/04/15 03:32:03;;;;;;;;;;;;;;;14.60;60.68;100964.48;107603;1254;107878;-64
2024/04/15 03:34:31;;;;;;;;;;;;;;;14.58;60.73;100963.59;107588;1253;107685;-64
2024/04/15 03:37:00;;;;;;;;;;;;;;;14.54;61.37;100966.80;107577;1254;99189;-64
2024/04/15 03:39:28;;;;;;;;;;;;;;;14.53;61.49;100963.20;107577;1251;99189;-64
2024/04/15 03:41:56;;;;;;;;;;;;;;;14.51;62.14;100968.38;107527;1253;113198;-64
2024/04/15 03:44:24;;;;;;;;;;;;;;;14.48;62.11;100964.20;107635;1254;108618;-64
2024/04/15 03:46:52;;;;;;;;;;;;;;;14.49;62.56;100968.25;107578;1253;108372;-64
2024/04/15 03:49:20;;;;;;;;;;;;;;;14.49;62.69;100970.22;107543;1254;99181;-64
2024/04/15 03:51:48;;;;;;;;;;;;;;;14.52;62.78;100965.06;107619;1253;99057;-64
2024/04/15 03:54:16;;;;;;;;;;;;;;;14.54;62.99;100975.54;107573;1257;112379;-63
2024/04/15 03:56:44;;;;;;;;;;;;;;;14.55;62.95;100975.44;107591;1252;107833;-65
2024/04/15 03:59:12;;;;;;;;;;;;;;;14.57;62.90;100975.58;107558;1254;107703;-63
2024/04/15 04:01:42;;;;;;;;;;;;;;;14.60;62.80;100973.52;107552;1253;99237;-65
2024/04/15 04:04:10;;;;;;;;;;;;;;;14.65;62.77;100968.42;107571;1254;99188;-63
2024/04/15 04:06:38;;;;;;;;;;;;;;;14.69;62.92;100974.56;107616;1255;113416;-64
2024/04/15 04:09:06;;;;;;;;;;;;;;;14.72;62.77;100978.23;107621;1253;108023;-64
2024/04/15 04:11:34;;;;;;;;;;;;;;;14.75;62.96;100979.02;107521;1254;108170;-64
2024/04/15 04:14:02;;;;;;;;;;;;;;;14.75;63.32;100974.48;107618;1254;99382;-64
2024/04/15 04:16:30;;;;;;;;;;;;;;;14.74;63.35;100977.31;107546;1253;99071;-64
2024/04/15 04:18:58;;;;;;;;;;;;;;;14.77;63.23;100973.40;107609;1253;113808;-65
2024/04/15 04:21:26;;;;;;;;;;;;;;;14.79;63.39;100973.88;107610;1254;108627;-65
2024/04/15 04:23:54;;;;;;;;;;;;;;;14.83;63.34;100972.76;107627;1254;107342;-64
2024/04/15 04:26:22;;;;;;;;;;;;;;;14.85;63.44;100979.80;107572;1254;99294;-65
2024/04/15 04:28:50;;;;;;;;;;;;;;;14.89;63.34;100980.52;107642;1254;99268;-64
2024/04/15 04:31:19;;;;;;;;;;;;;;;14.95;63.37;100980.73;107643;1255;112367;-63
2024/04/15 04:33:47;;;;;;;;;;;;;;;15.03;63.21;100980.50;107635;1254;107654;-63
2024/04/15 04:36:17;;;;;;;;;;;;;;;15.11;63.03;100976.56;107626;1251;108153;-64
2024/04/15 04:38:45;;;;;;;;;;;;;;;15.19;63.18;100975.03;107562;1251;99247;-64
2024/04/15 04:41:14;;;;;;;;;;;;;;;15.27;63.16;100977.61;107577;1254;99053;-64
2024/04/15 04:43:42;;;;;;;;;;;;;;;15.37;63.15;100976.02;107603;1251;112593;-63
2024/04/15 04:46:10;;;;;;;;;;;;;;;15.46;63.55;100981.05;107647;1253;107874;-63
2024/04/15 04:48:38;;;;;;;;;;;;;;;15.52;63.68;100973.72;107652;1255;107107;-63
2024/04/15 04:51:08;;;;;;;;;;;;;;;15.58;63.48;100969.30;107602;1254;99253;-64
2024/04/15 04:53:37;;;;;;;;;;;;;;;15.66;63.33;100972.07;107490;1254;99179;-63
2024/04/15 04:56:12;;;;;;;;;;;;;;;15.73;63.43;100973.98;107626;1251;113206;-63
2024/04/15 04:58:41;;;;;;;;;;;;;;;15.78;63.24;100974.34;107667;1251;108048;-63
2024/04/15 05:01:13;;;;;;;;;;;;;;;15.82;63.42;100971.59;107568;1253;108185;-63
2024/04/15 05:03:43;;;;;;;;;;;;;;;15.86;63.34;100969.38;107605;1251;99182;-63
2024/04/15 05:06:11;;;;;;;;;;;;;;;15.91;63.20;100964.16;107655;1254;99180;-64
2024/04/15 05:08:39;;;;;;;;;;;;;;;15.99;63.33;100966.55;107636;1251;112399;-62
2024/04/15 05:11:07;;;;;;;;;;;;;;;16.10;63.23;100961.98;107604;1251;108263;-63
2024/04/15 05:13:36;;;;;;;;;;;;;;;16.17;63.04;100958.80;107632;1251;107401;-63
2024/04/15 05:16:04;;;;;;;;;;;;;;;16.24;63.14;100956.60;107489;1251;99162;-64
2024/04/15 05:18:33;;;;;;;;;;;;;;;16.33;63.09;100953.85;107522;1251;99070;-64
2024/04/15 05:21:02;;;;;;;;;;;;;;;16.40;62.72;100950.19;107478;1251;113293;-64
2024/04/15 05:23:30;;;;;;;;;;;;;;;16.47;62.46;100950.63;107572;1250;106945;-65
2024/04/15 05:26:00;;;;;;;;;;;;;;;16.57;62.27;100953.57;107453;1254;108197;-65
2024/04/15 05:28:28;;;;;;;;;;;;;;;16.68;62.03;100949.45;107709;1253;99179;-65
2024/04/15 05:30:56;;;;;;;;;;;;;;;16.79;61.91;100954.02;107615;1251;99169;-65
2024/04/15 05:33:24;;;;;;;;;;;;;;;16.91;61.61;100954.11;107735;1251;111528;-64
2024/04/15 05:35:53;;;;;;;;;;;;;;;17.03;61.34;100948.08;107672;1254;107345;-64
2024/04/15 05:38:21;;;;;;;;;;;;;;;17.13;61.20;100946.35;107584;1254;107700;-63
2024/04/15 05:40:49;;;;;;;;;;;;;;;17.24;61.23;100945.94;107680;1254;99356;-66
2024/04/15 05:43:17;;;;;;;;;;;;;;;17.33;60.91;100948.85;107710;1254;99179;-64
2024/04/15 05:45:46;;;;;;;;;;;;;;;17.42;60.44;100942.96;107662;1253;113543;-64
2024/04/15 05:48:15;;;;;;;;;;;;;;;17.49;60.05;100932.36;107629;1254;108987;-64
2024/04/15 05:50:44;;;;;;;;;;;;;;;17.56;59.80;100926.61;107596;1255;108243;-63
2024/04/15 05:53:13;;;;;;;;;;;;;;;17.64;59.27;100921.70;107609;1254;99170;-64
2024/04/15 05:55:41;;;;;;;;;;;;;;;17.73;58.73;100918.45;107654;1253;99181;-64
2024/04/15 05:58:09;;;;;;;;;;;;;;;17.81;58.59;100916.77;107613;1253;112709;-64
2024/04/15 06:00:37;;;;;;;;;;;;;;;17.91;58.37;100915.36;107631;1251;107848;-63
2024/04/15 06:03:06;;;;;;;;;;;;;;;17.96;58.05;100906.52;107629;1252;107468;-63
2024/04/15 06:05:34;;;;;;;;;;;;;;;18.03;57.69;100909.60;107649;1254;99064;-64
2024/04/15 06:08:04;;;;;;;;;;;;;;;18.10;57.55;100905.80;107638;1252;99140;-64
2024/04/15 06:10:36;;;;;;;;;;;;;;;18.19;57.27;100903.38;107655;1256;112596;-64
2024/04/15 06:13:04;;;;;;;;;;;;;;;18.26;56.97;100895.96;107671;1253;108203;-64
2024/04/15 06:15:36;;;;;;;;;;;;;;;18.34;56.59;100892.65;107590;1254;107958;-64
2024/04/15 06:18:05;;;;;;;;;;;;;;;18.39;55.93;100887.50;107569;1251;99070;-65
2024/04/15 06:20:33;;;;;;;;;;;;;;;18.46;55.91;100883.41;107667;1254;99175;-65
2024/04/15 06:23:01;;;;;;;;;;;;;;;18.53;55.70;100887.67;107648;1251;112204;-64
2024/04/15 06:25:29;;;;;;;;;;;;;;;18.58;55.18;100884.29;107636;1256;107472;-64
2024/04/15 06:27:57;;;;;;;;;;;;;;;18.66;54.96;100880.48;107642;1255;108232;-65
2024/04/15 06:30:25;;;;;;;;;;;;;;;18.75;54.73;100878.23;107740;1252;99354;-64
2024/04/15 06:32:53;;;;;;;;;;;;;;;18.85;54.47;100871.08;107596;1251;99061;-64
2024/04/15 06:35:21;;;;;;;;;;;;;;;18.96;53.92;100873.63;107706;1251;113411;-64
2024/04/15 06:37:49;;;;;;;;;;;;;;;19.09;53.95;100873.69;107464;1251;107414;-64
2024/04/15 06:40:17;;;;;;;;;;;;;;;19.22;53.63;100869.89;107490;1251;107765;-63
2024/04/15 06:42:46;;;;;;;;;;;;;;;19.34;52.76;100866.40;107567;1251;99192;-67
2024/04/15 06:45:15;;;;;;;;;;;;;;;19.38;52.66;100862.89;107504;1251;99176;-64
2024/04/15 06:47:42;;;;;;;;;;;;;;;19.46;52.43;100854.70;107545;1251;114325;-63
2024/04/15 06:50:12;;;;;;;;;;;;;;;19.50;51.71;100854.20;107589;1251;108326;-65
2024/04/15 06:52:39;;;;;;;;;;;;;;;19.54;51.29;100852.56;107459;1251;108599;-63
2024/04/15 06:55:07;;;;;;;;;;;;;;;19.61;51.39;100850.07;107461;1251;99186;-64
2024/04/15 06:57:36;;;;;;;;;;;;;;;19.70;50.88;100848.77;107535;1251;99070;-64
2024/04/15 07:00:04;;;;;;;;;;;;;;;19.75;50.38;100841.19;107527;1251;113579;-64
2024/04/15 07:02:32;;;;;;;;;;;;;;;19.80;50.35;100838.20;107577;1251;108671;-63
2024/04/15 07:05:01;;;;;;;;;;;;;;;19.85;50.35;100832.48;107563;1253;106537;-63
2024/04/15 07:07:28;;;;;;;;;;;;;;;19.94;50.20;100827.64;107502;1254;99195;-63
2024/04/15 07:09:56;;;;;;;;;;;;;;;19.99;49.34;100826.39;107627;1251;99054;-63
2024/04/15 07:12:25;;;;;;;;;;;;;;;20.04;49.53;100821.21;107607;1255;112591;-63
2024/04/15 07:14:53;;;;;;;;;;;;;;;20.14;49.68;100820.29;107534;1251;107988;-64
2024/04/15 07:17:21;;;;;;;;;;;;;;;20.26;49.52;100821.52;107531;1251;107739;-63
2024/04/15 07:19:49;;;;;;;;;;;;;;;20.36;49.01;100813.26;107582;1251;99178;-63
2024/04/15 07:22:18;;;;;;;;;;;;;;;20.43;48.72;100812.54;107679;1251;99195;-63
2024/04/15 07:24:46;;;;;;;;;;;;;;;20.48;48.40;100804.93;107625;1254;113201;-65
2024/04/15 07:27:14;;;;;;;;;;;;;;;20.54;48.73;100800.55;107615;1253;108398;-63
2024/04/15 07:29:45;;;;;;;;;;;;;;;20.66;48.79;100794.75;107600;1253;108728;-64
2024/04/15 07:32:13;;;;;;;;;;;;;;;20.81;48.96;100793.19;107585;1254;99258;-63
2024/04/15 07:34:43;;;;;;;;;;;;;;;20.96;48.49;100791.77;107628;1251;99174;-63
2024/04/15 07:37:11;;;;;;;;;;;;;;;21.07;48.53;100785.58;107632;1251;113787;-63
2024/04/15 07:39:40;;;;;;;;;;;;;;;21.20;48.49;100785.38;107616;1251;107515;-63
2024/04/15 07:42:09;;;;;;;;;;;;;;;21.35;48.62;100779.01;107596;1251;108408;-64
2024/04/15 07:44:37;;;;;;;;;;;;;;;21.51;48.62;100778.23;107531;1251;99081;-64
2024/04/15 07:47:07;;;;;;;;;;;;;;;21.69;48.66;100775.70;107604;1253;99064;-63
2024/04/15 07:49:35;;;;;;;;;;;;;;;21.86;48.50;100774.42;107575;1254;112893;-64
2024/04/15 07:52:05;;;;;;;;;;;;;;;22.02;48.58;100769.08;107616;1254;107020;-64
2024/04/15 07:54:33;;;;;;;;;;;;;;;22.15;48.38;100762.02;107501;1254;107673;-64
2024/04/15 07:57:02;;;;;;;;;;;;;;;22.25;48.57;100756.56;107599;1253;99201;-63
2024/04/15 07:59:30;;;;;;;;;;;;;;;22.40;48.51;100762.28;106837;1254;1019060;-64
2024/04/15 08:01:58;;;;;;;;;;;;;;;22.52;48.19;100759.02;107599;1254;113457;-64
2024/04/15 08:04:26;;;;;;;;;;;;;;;22.63;47.81;100752.73;107615;1254;108562;-63
2024/04/15 08:06:54;;;;;;;;;;;;;;;22.74;47.85;100751.17;107607;1254;108234;-64
2024/04/15 08:09:39;;;;;;;;;;;;;;;22.89;47.97;100745.77;107571;1251;99150;-64
2024/04/15 08:12:08;;;;;;;;;;;;;;;22.99;47.72;100745.48;107601;1253;99218;-63
2024/04/15 08:14:36;;;;;;;;;;;;;;;23.09;47.69;100739.05;107615;1253;113252;-64
2024/04/15 08:17:04;;;;;;;;;;;;;;;23.19;47.44;100738.66;107633;1254;107837;-62
2024/04/15 08:19:32;;;;;;;;;;;;;;;23.32;47.34;100735.79;107616;1254;108748;-64
2024/04/15 08:22:00;;;;;;;;;;;;;;;23.46;47.09;100734.75;107624;1256;99297;-63
2024/04/15 08:24:28;;;;;;;;;;;;;;;23.58;46.97;100737.04;107513;1251;99166;-63
2024/04/15 08:26:56;;;;;;;;;;;;;;;23.72;46.69;100738.65;107545;1254;112271;-63
2024/04/15 08:29:24;;;;;;;;;;;;;;;23.85;46.67;100734.48;107619;1251;108747;-63
2024/04/15 08:31:52;;;;;;;;;;;;;;;23.90;45.83;100729.83;107598;1255;109210;-63
2024/04/15 08:34:23;;;;;;;;;;;;;;;23.97;45.72;100724.29;107616;1254;99640;-63
2024/04/15 08:36:51;;;;;;;;;;;;;;;24.03;45.04;100722.34;107523;1251;99170;-63
2024/04/15 08:39:19;;;;;;;;;;;;;;;24.13;45.29;100711.04;107542;1251;112270;-64
2024/04/15 08:41:48;;;;;;;;;;;;;;;24.28;44.80;100713.98;107617;1251;107971;-64
2024/04/15 08:44:33;;;;;;;;;;;;;;;24.41;43.74;100710.29;107609;1256;107590;-63
2024/04/15 08:47:09;;;;;;;;;;;;;;;24.51;43.41;100707.22;107631;1251;99300;-64
2024/04/15 08:49:41;;;;;;;;;;;;;;;24.59;42.43;100703.05;107628;1251;99202;-63
2024/04/15 08:52:13;;;;;;;;;;;;;;;24.67;42.60;100694.32;107623;1251;112668;-63
2024/04/15 08:54:42;;;;;;;;;;;;;;;24.79;41.49;100686.80;107658;1251;107170;-63
2024/04/15 08:57:13;;;;;;;;;;;;;;;24.85;40.50;100684.44;107620;1254;108830;-64
2024/04/15 08:59:42;;;;;;;;;;;;;;;24.88;40.06;100685.55;107573;1251;99058;-63
2024/04/15 09:02:13;;;;;;;;;;;;;;;24.95;39.82;100684.46;107650;1251;99169;-63
2024/04/15 09:04:41;;;;;;;;;;;;;;;25.07;39.66;100685.61;107606;1251;112529;-63
2024/04/15 09:07:10;;;;;;;;;;;;;;;25.19;39.58;100683.13;107645;1254;107127;-64
2024/04/15 09:09:38;;;;;;;;;;;;;;;25.32;39.63;100687.88;107572;1254;107720;-62
2024/04/15 09:12:07;;;;;;;;;;;;;;;25.45;38.83;100684.95;107561;1252;99173;-62
2024/04/15 09:14:35;;;;;;;;;;;;;;;25.50;38.22;100676.31;107617;1251;99254;-64
2024/04/15 09:17:06;;;;;;;;;;;;;;;25.54;38.13;100669.08;107627;1251;112701;-63
2024/04/15 09:19:34;;;;;;;;;;;;;;;25.65;38.14;100661.59;107636;1253;107549;-63
2024/04/15 09:22:02;;;;;;;;;;;;;;;25.75;36.85;100667.20;107624;1254;107515;-64
2024/04/15 09:24:30;;;;;;;;;;;;;;;25.85;37.15;100664.31;107601;1254;99263;-63
2024/04/15 09:26:58;;;;;;;;;;;;;;;26.07;37.79;100657.93;107614;1253;99354;-64
2024/04/15 09:29:26;;;;;;;;;;;;;;;26.39;37.00;100659.61;107734;1251;114218;-64
2024/04/15 09:31:55;;;;;;;;;;;;;;;26.61;35.24;100652.03;107624;1251;108612;-63
2024/04/15 09:34:23;;;;;;;;;;;;;;;26.74;34.94;100652.67;107584;1252;108237;-64
2024/04/15 09:36:59;;;;;;;;;;;;;;;26.86;34.39;100647.90;107531;1251;99176;-63
2024/04/15 09:39:27;;;;;;;;;;;;;;;26.99;34.17;100645.15;107521;1251;99185;-64
2024/04/15 09:41:56;;;;;;;;;;;;;;;27.13;33.38;100643.17;107524;1251;112604;-64
2024/04/15 09:44:24;;;;;;;;;;;;;;;27.14;32.71;100640.11;107576;1250;107789;-63
2024/04/15 09:46:53;;;;;;;;;;;;;;;27.14;32.71;100630.73;107514;1251;107008;-63
2024/04/15 09:49:21;;;;;;;;;;;;;;;27.22;33.32;100618.59;107591;1253;99070;-63
2024/04/15 09:51:51;;;;;;;;;;;;;;;27.49;33.69;100615.65;107634;1253;99179;-64
2024/04/15 09:54:24;;;;;;;;;;;;;;;27.72;32.10;100614.50;107626;1254;113719;-63
2024/04/15 09:56:55;;;;;;;;;;;;;;;27.87;31.38;100608.11;107652;1254;107857;-64
2024/04/15 09:59:24;;;;;;;;;;;;;;;27.97;31.44;100602.21;107578;1255;107411;-64
2024/04/15 10:01:54;;;;;;;;;;;;;;;28.05;30.64;100604.11;107547;1251;99182;-62
2024/04/15 10:04:22;;;;;;;;;;;;;;;27.92;30.28;100602.77;107520;1250;99064;-63
2024/04/15 10:06:53;;;;;;;;;;;;;;;27.73;30.83;100591.13;107520;1251;113121;-63
2024/04/15 10:09:21;;;;;;;;;;;;;;;27.66;30.88;100587.33;107520;1250;108092;-65
2024/04/15 10:11:50;;;;;;;;;;;;;;;27.58;31.15;100587.05;107532;1254;107050;-63
2024/04/15 10:14:19;;;;;;;;;;;;;;;27.59;31.43;100577.34;107492;1254;99202;-63
2024/04/15 10:16:48;;;;;;;;;;;;;;;27.65;30.85;100575.27;107579;1254;99169;-64
2024/04/15 10:19:28;;;;;;;;;;;;;;;27.55;31.09;100571.88;107553;1254;113180;-63
2024/04/15 10:21:56;;;;;;;;;;;;;;;27.49;31.52;100568.15;107615;1255;108270;-63
2024/04/15 10:24:25;;;;;;;;;;;;;;;27.51;30.99;100561.55;107656;1253;108716;-65
2024/04/15 10:26:53;;;;;;;;;;;;;;;27.52;30.74;100561.05;107586;1254;99823;-64
2024/04/15 10:29:24;;;;;;;;;;;;;;;27.53;30.84;100552.68;107628;1254;99276;-65
2024/04/15 10:31:52;;;;;;;;;;;;;;;27.62;30.92;100542.48;107592;1255;112245;-64
2024/04/15 10:34:22;;;;;;;;;;;;;;;27.64;31.39;100537.13;107596;1251;107977;-63
2024/04/15 10:36:51;;;;;;;;;;;;;;;27.74;31.17;100532.01;107607;1253;107395;-62
2024/04/15 10:39:21;;;;;;;;;;;;;;;27.94;31.14;100525.39;107598;1256;99176;-64
2024/04/15 10:41:49;;;;;;;;;;;;;;;28.30;30.29;100518.95;107617;1252;99189;-64
2024/04/15 10:44:17;;;;;;;;;;;;;;;28.60;30.20;100507.61;107610;1252;112848;-63
2024/04/15 10:46:45;;;;;;;;;;;;;;;29.00;29.85;100499.64;107575;1251;107883;-62
2024/04/15 10:49:14;;;;;;;;;;;;;;;29.33;29.69;100491.15;107597;1252;107651;-64
2024/04/15 10:51:43;;;;;;;;;;;;;;;29.56;29.59;100493.59;107637;1252;99188;-64
2024/04/15 10:54:11;;;;;;;;;;;;;;;29.71;29.60;100491.83;107641;1254;99175;-63
2024/04/15 10:56:39;;;;;;;;;;;;;;;29.68;28.56;100488.11;107595;1254;113682;-64
2024/04/15 10:59:11;;;;;;;;;;;;;;;29.47;29.14;100476.16;107632;1253;107880;-63
2024/04/15 11:01:42;;;;;;;;;;;;;;;29.25;28.96;100470.93;107579;1253;108167;-64
2024/04/15 11:04:11;;;;;;;;;;;;;;;29.05;29.73;100458.14;107568;1251;99185;-63
2024/04/15 11:06:39;;;;;;;;;;;;;;;28.98;29.74;100447.95;107601;1254;99173;-64
2024/04/15 11:09:08;;;;;;;;;;;;;;;28.91;29.56;100442.05;107581;1251;113640;-64
2024/04/15 11:11:37;;;;;;;;;;;;;;;28.81;29.53;100439.72;107584;1251;108302;-63
2024/04/15 11:14:09;;;;;;;;;;;;;;;28.65;29.77;100433.00;107649;1251;107553;-63
2024/04/15 11:16:43;;;;;;;;;;;;;;;28.50;29.66;100431.33;107515;1252;99285;-63
2024/04/15 11:19:11;;;;;;;;;;;;;;;28.33;30.06;100421.18;107602;1252;99208;-63
2024/04/15 11:21:39;;;;;;;;;;;;;;;28.35;30.43;100418.54;107627;1251;113550;-63
2024/04/15 11:24:08;;;;;;;;;;;;;;;28.34;30.33;100408.73;107616;1254;107862;-63
2024/04/15 11:26:37;;;;;;;;;;;;;;;28.25;30.30;100406.89;107572;1251;108594;-62
2024/04/15 11:29:06;;;;;;;;;;;;;;;28.11;30.16;100400.63;107575;1253;99172;-62
2024/04/15 11:31:36;;;;;;;;;;;;;;;27.93;30.50;100397.73;107617;1254;99179;-64
2024/04/15 11:34:04;;;;;;;;;;;;;;;27.83;30.68;100393.60;107639;1254;113569;-64
2024/04/15 11:36:36;;;;;;;;;;;;;;;27.70;30.80;100383.52;107578;1250;108302;-64
2024/04/15 11:39:04;;;;;;;;;;;;;;;27.60;31.01;100378.50;107639;1251;108227;-63
2024/04/15 11:41:32;;;;;;;;;;;;;;;27.54;31.07;100369.48;107576;1251;99185;-62
2024/04/15 11:44:00;;;;;;;;;;;;;;;27.57;31.54;100362.38;107588;1254;99169;-61
2024/04/15 11:46:28;;;;;;;;;;;;;;;27.63;31.88;100350.49;107625;1251;115356;-63
2024/04/15 11:48:56;;;;;;;;;;;;;;;27.68;31.40;100342.42;107603;1253;108718;-63
2024/04/15 11:51:25;;;;;;;;;;;;;;;27.66;31.19;100338.05;107549;1254;108170;-62
2024/04/15 11:53:55;;;;;;;;;;;;;;;27.63;31.19;100331.61;107590;1253;99184;-64
2024/04/15 11:56:23;;;;;;;;;;;;;;;27.60;31.47;100320.48;107613;1251;99172;-64
2024/04/15 11:58:51;;;;;;;;;;;;;;;27.68;31.49;100316.35;107654;1256;113194;-63
2024/04/15 12:01:19;;;;;;;;;;;;;;;27.76;31.20;100310.95;107640;1251;107810;-63
2024/04/15 12:03:47;;;;;;;;;;;;;;;27.81;31.02;100306.30;107613;1251;107392;-62
2024/04/15 12:06:18;;;;;;;;;;;;;;;27.77;30.66;100300.18;107654;1250;99170;-63
2024/04/15 12:08:46;;;;;;;;;;;;;;;27.74;30.82;100291.53;107632;1251;99163;-63
2024/04/15 12:11:14;;;;;;;;;;;;;;;27.68;30.80;100286.78;107657;1251;113158;-64
2024/04/15 12:13:42;;;;;;;;;;;;;;;27.67;30.92;100280.86;107604;1254;108642;-63
2024/04/15 12:16:10;;;;;;;;;;;;;;;27.62;31.05;100271.88;107613;1254;107216;-62
2024/04/15 12:18:39;;;;;;;;;;;;;;;27.57;31.23;100263.86;107627;1254;99176;-62
2024/04/15 12:21:06;;;;;;;;;;;;;;;27.55;31.16;100252.02;107620;1253;99093;-63
2024/04/15 12:23:34;;;;;;;;;;;;;;;27.56;31.34;100249.88;107632;1254;111412;-64
2024/04/15 12:26:03;;;;;;;;;;;;;;;27.56;31.28;100238.83;107581;1253;108793;-64
2024/04/15 12:28:31;;;;;;;;;;;;;;;27.53;31.09;100231.67;107621;1251;107072;-63